Time;durP1;ratioP1;P1;durP2;ratioP2;P2;SDS_P1;SDS_P2;PMS_P1;PMS_P2;Temp;Humidity;BMP_temperature;BMP_pressure;BME280_temperature;BME280_humidity;BME280_pressure;Samples;Min_cycle;Max_cycle;Signal;HPM_P1;HPM_P2
2022/01/03 00:02:23;;;;;;;3.87;1.50;;;11.30;69.00;;;10.03;68.06;97808.88;5091727;28;20454;-81
2022/01/03 00:04:52;;;;;;;3.13;2.17;;;11.20;69.00;;;10.10;68.04;97800.75;5073697;28;20984;-78
2022/01/03 00:07:19;;;;;;;5.80;1.90;;;11.30;68.90;;;10.23;67.64;97798.97;5087570;28;20539;-77
2022/01/03 00:09:46;;;;;;;3.33;1.90;;;11.30;68.80;;;10.16;67.44;97791.75;5089236;28;20875;-80
2022/01/03 00:12:13;;;;;;;4.20;2.07;;;11.40;68.90;;;10.15;67.35;97786.56;5082030;28;20805;-80
2022/01/03 00:14:41;;;;;;;3.30;1.87;;;11.30;68.70;;;10.06;68.45;97784.16;5093180;28;20461;-79
2022/01/03 00:17:08;;;;;;;2.27;1.50;;;11.30;68.80;;;10.09;67.41;97774.81;5091873;28;20492;-80
2022/01/03 00:19:36;;;;;;;5.27;1.73;;;11.30;68.80;;;10.05;68.35;97779.81;5082013;28;20535;-77
2022/01/03 00:22:07;;;;;;;4.50;1.60;;;11.20;68.90;;;10.01;68.09;97777.75;5071819;28;20454;-79
2022/01/03 00:24:36;;;;;;;3.10;1.70;;;11.20;68.90;;;9.92;68.37;97758.28;5083668;28;20529;-77
2022/01/03 00:27:12;;;;;;;3.37;1.77;;;11.20;69.00;;;9.86;68.67;97762.69;5072581;28;20457;-79
2022/01/03 00:29:44;;;;;;;4.13;2.30;;;11.10;69.00;;;9.84;69.23;97777.44;5087071;28;20476;-79
2022/01/03 00:32:15;;;;;;;3.63;1.87;;;11.10;69.30;;;9.74;69.80;97788.69;5090051;28;20499;-79
2022/01/03 00:34:42;;;;;;;2.87;2.03;;;10.90;69.60;;;9.71;70.15;97778.34;5087482;28;20555;-79
2022/01/03 00:37:12;;;;;;;2.80;2.27;;;10.90;69.90;;;9.66;70.40;97775.47;5099975;28;20481;-79
2022/01/03 00:39:39;;;;;;;5.73;2.17;;;10.90;70.10;;;9.56;70.96;97775.94;5097570;28;20522;-79
2022/01/03 00:42:06;;;;;;;3.30;2.23;;;10.80;70.30;;;9.58;70.49;97769.25;5077747;28;20911;-79
2022/01/03 00:44:33;;;;;;;3.87;2.40;;;10.80;70.40;;;9.56;70.87;97763.25;5090654;28;20452;-79
2022/01/03 00:47:03;;;;;;;5.30;2.47;;;10.80;70.60;;;9.46;70.85;97761.03;5087094;28;20987;-79
2022/01/03 00:49:30;;;;;;;5.43;2.60;;;10.70;70.70;;;9.35;71.94;97759.84;5069024;28;20468;-79
2022/01/03 00:51:57;;;;;;;4.53;2.70;;;10.70;71.00;;;9.37;71.64;97765.00;5085579;28;20556;-79
2022/01/03 00:54:26;;;;;;;3.17;1.90;;;10.60;71.20;;;9.42;71.87;97764.38;5069945;28;20449;-80
2022/01/03 00:56:54;;;;;;;3.90;2.40;;;10.60;71.20;;;9.28;72.38;97759.03;5087302;28;20514;-82
2022/01/03 00:59:27;;;;;;;5.87;2.40;;;10.50;71.30;;;9.21;72.56;97753.66;5084861;28;20488;-80
2022/01/03 01:01:55;;;;;;;3.50;2.17;;;10.50;71.40;;;9.30;72.41;97767.72;5085694;28;20463;-78
2022/01/03 01:04:24;;;;;;;4.20;2.13;;;10.50;71.30;;;9.30;71.63;97770.41;5077853;28;20900;-80
2022/01/03 01:06:55;;;;;;;6.50;2.40;;;10.50;71.30;;;9.35;71.32;97770.63;5071800;28;20553;-80
2022/01/03 01:09:26;;;;;;;4.67;2.70;;;10.50;71.30;;;9.40;70.90;97777.25;5089862;28;20468;-78
2022/01/03 01:11:57;;;;;;;3.47;1.87;;;10.60;71.20;;;9.35;71.90;97764.41;5069717;28;20649;-80
2022/01/03 01:14:27;;;;;;;5.00;2.83;;;10.60;71.20;;;9.22;72.87;97749.09;5067229;28;20480;-80
2022/01/03 01:16:55;;;;;;;5.43;2.10;;;10.50;71.20;;;9.35;71.47;97759.00;5069500;28;20455;-80
2022/01/03 01:19:24;;;;;;;4.77;2.43;;;10.50;71.20;;;8.77;72.23;97682.50;5101379;28;20536;-81
2022/01/03 01:21:52;;;;;;;3.20;1.80;;;10.50;71.30;;;9.25;72.08;97764.84;5098767;28;20459;-79
2022/01/03 01:24:23;;;;;;;5.20;2.60;;;10.40;71.20;;;9.38;70.98;97752.38;5097963;28;20462;-80
2022/01/03 01:29:39;;;;;;;3.10;1.60;;;10.70;70.60;;;9.80;69.36;97774.34;5089713;28;20465;-79
2022/01/03 01:32:09;;;;;;;4.87;1.67;;;10.90;70.00;;;9.89;68.53;97748.75;5092836;28;20518;-80
2022/01/03 01:34:42;;;;;;;6.40;1.40;;;11.10;69.50;;;10.05;68.28;97749.28;5066415;28;20458;-81
2022/01/03 01:37:10;;;;;;;4.67;1.30;;;11.20;69.00;;;10.24;67.39;97754.75;5072929;28;20537;-80
2022/01/03 01:39:37;;;;;;;4.87;1.00;;;11.40;68.40;;;10.18;67.45;97740.25;5083995;28;20466;-80
2022/01/03 01:42:07;;;;;;;2.90;1.23;;;11.40;68.30;;;10.31;66.19;97760.91;5082746;28;20464;-80
2022/01/03 01:44:36;;;;;;;2.23;1.00;;;11.50;67.90;;;10.40;65.93;97756.06;5092359;28;20448;-78
2022/01/03 01:47:06;;;;;;;4.87;1.70;;;11.60;67.40;;;10.49;65.55;97742.09;5086676;28;20463;-79
2022/01/03 01:49:40;;;;;;;2.57;1.23;;;11.60;67.20;;;10.24;65.43;97712.38;5087281;28;20519;-79
2022/01/03 01:52:16;;;;;;;2.50;1.10;;;11.70;67.00;;;10.51;65.92;97738.34;5070848;28;20453;-79
2022/01/03 01:54:55;;;;;;;2.17;1.30;;;11.70;66.90;;;10.42;66.21;97740.50;5069282;28;20448;-79
2022/01/03 01:57:39;;;;;;;6.97;1.63;;;11.60;67.00;;;10.35;65.80;97745.94;5085515;28;21018;-79
2022/01/03 02:00:11;;;;;;;5.27;1.20;;;11.50;67.00;;;10.45;65.70;97732.78;5086418;28;20976;-79
2022/01/03 02:02:51;;;;;;;4.63;1.47;;;11.70;66.70;;;10.37;65.41;97738.44;5087074;28;20538;-80
2022/01/03 02:05:22;;;;;;;4.57;1.47;;;11.70;66.70;;;10.46;65.59;97747.94;5086048;28;20477;-79
2022/01/03 02:08:08;;;;;;;5.90;1.20;;;11.70;66.60;;;10.62;65.56;97751.13;5085625;28;20966;-79
2022/01/03 02:10:40;;;;;;;2.33;0.80;;;11.70;66.50;;;10.66;64.86;97760.44;5073838;28;20473;-78
2022/01/03 02:13:11;;;;;;;3.40;1.00;;;11.80;66.30;;;10.74;64.88;97789.03;5083616;28;20549;-79
2022/01/03 02:15:38;;;;;;;6.17;1.33;;;11.90;66.20;;;10.58;66.64;97842.59;5085367;28;20497;-78
2022/01/03 02:18:07;;;;;;;4.07;0.73;;;11.80;67.40;;;9.05;75.25;97887.03;5085405;28;21091;-77
2022/01/03 02:20:35;;;;;;;4.73;1.03;;;10.70;71.20;;;7.23;86.42;97894.56;5091260;28;20460;-82
2022/01/03 02:23:04;;;;;;;1.57;0.60;;;9.00;82.20;;;6.62;91.52;97904.00;5088742;28;20556;-82
2022/01/03 02:25:31;;;;;;;1.80;0.40;;;8.20;90.60;;;6.36;92.70;97912.66;5085736;28;20547;-80
2022/01/03 02:27:59;;;;;;;0.80;0.40;;;7.90;92.90;;;6.22;94.35;97920.56;5086879;28;20544;-80
2022/01/03 02:30:29;;;;;;;1.83;0.50;;;7.70;95.60;;;6.06;95.93;97921.59;5089301;28;20473;-79
2022/01/03 02:32:56;;;;;;;1.33;0.50;;;7.50;97.10;;;6.02;96.55;97949.00;5091255;28;20568;-82
2022/01/03 02:35:24;;;;;;;1.97;0.70;;;7.50;99.50;;;5.88;96.49;97935.41;5073573;28;20555;-82
2022/01/03 02:37:56;;;;;;;1.70;0.50;;;7.40;97.60;;;5.79;97.42;97947.25;5072172;28;20456;-83
2022/01/03 02:40:24;;;;;;;0.93;0.50;;;7.30;99.90;;;5.64;98.70;97929.31;5075897;28;20450;-81
2022/01/03 02:42:52;;;;;;;1.83;0.70;;;7.20;99.90;;;5.76;97.45;97948.47;5071276;28;20492;-81
2022/01/03 02:45:22;;;;;;;1.00;0.50;;;7.20;99.90;;;5.61;98.21;97935.06;5070392;28;21017;-81
2022/01/03 02:47:51;;;;;;;0.93;0.50;;;7.10;99.90;;;5.66;97.64;97945.22;5085949;28;20456;-81
2022/01/03 02:50:21;;;;;;;1.90;0.60;;;7.10;99.70;;;5.72;97.69;97963.22;5069769;28;20496;-80
2022/01/03 02:52:48;;;;;;;1.73;0.40;;;7.10;99.90;;;5.63;97.03;97949.09;5083079;28;20495;-80
2022/01/03 02:55:18;;;;;;;0.93;0.60;;;7.20;98.60;;;5.55;95.92;97927.75;5087588;28;20609;-80
2022/01/03 02:57:49;;;;;;;2.10;0.70;;;7.20;96.10;;;5.66;95.95;97954.09;5103854;28;21056;-80
2022/01/03 03:00:18;;;;;;;1.20;0.40;;;7.10;95.60;;;5.67;93.26;97950.38;5091639;28;20502;-80
2022/01/03 03:02:46;;;;;;;1.50;0.63;;;7.10;92.90;;;5.69;94.38;97947.53;5087389;28;20609;-79
2022/01/03 03:05:14;;;;;;;6.50;0.73;;;7.10;93.70;;;5.21;94.31;97873.72;5071434;28;20809;-79
2022/01/03 03:07:43;;;;;;;2.77;0.67;;;7.10;94.30;;;5.67;95.65;97915.53;5090225;28;20455;-80
2022/01/03 03:10:16;;;;;;;1.33;0.50;;;7.10;96.60;;;5.47;96.62;97879.59;5087603;28;20505;-79
2022/01/03 03:12:46;;;;;;;1.33;0.53;;;7.10;97.40;;;5.61;96.57;97894.84;5084550;28;20480;-79
2022/01/03 03:15:16;;;;;;;1.47;0.53;;;7.10;97.50;;;5.76;95.68;97931.53;5071184;28;20539;-79
2022/01/03 03:17:45;;;;;;;0.90;0.50;;;7.10;95.90;;;5.57;94.82;97890.88;5079864;28;20942;-80
2022/01/03 03:20:14;;;;;;;1.03;0.60;;;7.20;95.50;;;5.86;94.80;97929.41;5090227;28;20531;-79
2022/01/03 03:22:42;;;;;;;1.53;0.70;;;7.20;94.90;;;5.77;94.35;97923.31;5093107;28;20947;-79
2022/01/03 03:25:12;;;;;;;2.77;0.67;;;7.30;95.00;;;5.29;94.64;97831.75;5089263;28;20452;-80
2022/01/03 03:27:44;;;;;;;1.20;0.63;;;7.30;95.80;;;5.99;95.49;97943.97;5088066;28;20501;-79
2022/01/03 03:30:16;;;;;;;2.60;0.80;;;7.30;97.10;;;5.76;95.49;97900.19;5074937;28;20525;-79
2022/01/03 03:32:45;;;;;;;0.63;0.60;;;7.40;96.20;;;5.91;94.63;97884.06;5090687;28;20467;-80
2022/01/03 03:35:12;;;;;;;2.40;0.70;;;7.40;94.70;;;6.02;92.57;97898.88;5093792;28;20458;-80
2022/01/03 03:37:39;;;;;;;1.63;0.57;;;7.40;93.30;;;6.04;91.34;97912.09;5074090;28;20890;-77
2022/01/03 03:40:09;;;;;;;2.00;0.60;;;7.40;91.70;;;5.86;91.08;97894.53;5089191;28;20912;-77
2022/01/03 03:42:37;;;;;;;1.13;0.47;;;7.40;91.30;;;6.08;92.00;97913.38;5070622;28;20453;-77
2022/01/03 03:45:06;;;;;;;2.40;0.57;;;7.40;92.60;;;6.09;91.76;97882.84;5088529;28;20465;-76
2022/01/03 03:47:35;;;;;;;0.70;0.43;;;7.40;92.10;;;6.06;91.55;97872.50;5083694;28;20460;-77
2022/01/03 03:50:02;;;;;;;1.90;0.60;;;7.40;92.00;;;6.07;91.55;97896.47;5087740;28;20555;-77
2022/01/03 03:52:29;;;;;;;1.77;0.57;;;7.40;92.30;;;5.91;92.36;97894.78;5070565;28;20946;-79
2022/01/03 03:54:56;;;;;;;2.77;0.40;;;7.40;93.20;;;6.01;92.54;97929.41;5086625;28;20551;-78
2022/01/03 03:57:23;;;;;;;2.83;0.73;;;7.40;93.00;;;6.02;91.62;97925.69;5073603;28;20547;-77
2022/01/03 03:59:50;;;;;;;1.13;0.47;;;7.40;92.20;;;6.02;92.07;97935.59;5089473;28;20453;-79
2022/01/03 04:02:17;;;;;;;2.20;0.40;;;7.30;92.30;;;5.84;92.33;97918.03;5088327;28;20533;-77
2022/01/03 04:04:46;;;;;;;2.10;0.67;;;7.30;92.80;;;6.13;91.07;97937.78;5086823;28;20457;-78
2022/01/03 04:07:13;;;;;;;3.47;0.70;;;7.40;92.20;;;6.09;90.68;97920.41;5092046;28;20793;-77
2022/01/03 04:09:40;;;;;;;1.60;0.50;;;7.50;91.80;;;6.03;91.61;97908.56;5085479;28;21206;-75
2022/01/03 04:12:08;;;;;;;0.80;0.70;;;7.40;92.20;;;6.05;90.80;97895.81;5068169;28;20915;-76
2022/01/03 04:14:35;;;;;;;3.53;0.77;;;7.40;91.20;;;5.96;90.29;97892.38;5073480;28;20518;-74
2022/01/03 04:17:02;;;;;;;9.53;0.80;;;7.40;91.40;;;6.05;90.36;97927.97;5090653;28;20464;-75
2022/01/03 04:19:29;;;;;;;1.50;0.60;;;7.40;91.00;;;6.02;91.25;97922.19;5083257;28;20506;-76
2022/01/03 04:21:57;;;;;;;1.97;0.50;;;7.40;92.10;;;6.00;91.02;97935.75;5071895;28;20456;-77
2022/01/03 04:24:24;;;;;;;1.67;0.87;;;7.30;91.80;;;5.99;91.63;97925.19;5087741;28;20550;-78
2022/01/03 04:26:51;;;;;;;2.50;0.60;;;7.30;92.00;;;5.95;92.41;97925.56;5075914;28;20540;-77
2022/01/03 04:29:18;;;;;;;4.80;0.90;;;7.30;92.70;;;6.03;90.92;97927.34;5085841;28;21270;-76
2022/01/03 04:31:45;;;;;;;2.20;0.70;;;7.40;92.10;;;6.01;91.62;97923.19;5072351;28;20468;-76
2022/01/03 04:34:13;;;;;;;4.03;0.80;;;7.40;92.30;;;6.00;92.50;97921.53;5086279;28;20484;-77
2022/01/03 04:36:40;;;;;;;3.33;0.90;;;7.40;93.10;;;6.07;92.30;97925.13;5088659;28;20448;-78
2022/01/03 04:39:09;;;;;;;4.93;0.97;;;7.40;93.20;;;6.08;90.98;97924.09;5082177;28;20552;-77
2022/01/03 04:41:36;;;;;;;5.03;1.67;;;7.40;91.80;;;5.90;91.99;97906.53;5080867;28;21096;-78
2022/01/03 04:44:05;;;;;;;2.80;1.03;;;7.50;92.60;;;6.03;92.30;97935.41;5068347;28;20547;-78
2022/01/03 04:46:33;;;;;;;3.27;1.00;;;7.40;92.70;;;6.19;91.10;97934.34;5087239;28;20451;-77
2022/01/03 04:49:00;;;;;;;3.60;0.93;;;7.50;92.20;;;6.17;91.41;97936.41;5086096;28;20471;-77
2022/01/03 04:51:27;;;;;;;4.97;1.00;;;7.50;92.40;;;6.17;92.36;97939.09;5087391;28;20468;-77
2022/01/03 04:53:54;;;;;;;3.17;0.80;;;7.50;93.00;;;6.24;90.82;97937.28;5086003;28;21026;-78
2022/01/03 04:56:23;;;;;;;4.13;0.50;;;7.60;92.00;;;6.34;89.66;97930.78;5084338;28;20540;-77
2022/01/03 04:58:50;;;;;;;5.50;0.97;;;7.60;90.70;;;6.42;89.14;97932.53;5067949;28;20457;-77
2022/01/03 05:01:17;;;;;;;3.40;1.00;;;7.70;90.50;;;6.41;89.88;97934.38;5069686;28;20546;-77
2022/01/03 05:03:44;;;;;;;4.13;0.63;;;7.70;91.00;;;6.30;90.73;97940.25;5090728;28;20921;-77
2022/01/03 05:06:12;;;;;;;1.60;0.60;;;7.70;91.70;;;6.41;90.81;97934.38;5088546;28;20522;-76
2022/01/03 05:08:41;;;;;;;3.17;1.10;;;7.70;91.80;;;6.40;90.00;97915.78;5094592;28;20438;-76
2022/01/03 05:11:08;;;;;;;6.07;1.33;;;7.80;90.90;;;6.36;90.99;97924.19;5088313;28;20587;-75
2022/01/03 05:13:36;;;;;;;3.90;0.70;;;7.70;91.90;;;6.34;91.75;97926.25;5093756;28;20482;-75
2022/01/03 05:16:04;;;;;;;4.13;0.80;;;7.70;92.80;;;6.38;91.95;97913.28;5068016;28;20495;-75
2022/01/03 05:18:31;;;;;;;2.87;0.90;;;7.70;92.90;;;6.39;91.35;97933.72;5086128;28;20457;-75
2022/01/03 05:20:58;;;;;;;2.83;0.87;;;7.70;92.00;;;6.41;91.12;97912.91;5103455;28;20566;-75
2022/01/03 05:23:25;;;;;;;3.17;0.70;;;7.80;92.00;;;6.40;91.65;97894.31;5082568;28;20548;-76
2022/01/03 05:25:53;;;;;;;4.70;1.20;;;7.70;92.40;;;6.48;91.90;97915.66;5069543;28;20548;-77
2022/01/03 05:28:20;;;;;;;3.80;1.00;;;7.80;92.70;;;6.51;91.02;97916.09;5065310;28;20558;-77
2022/01/03 05:30:48;;;;;;;1.23;0.80;;;7.80;92.10;;;6.47;91.16;97914.84;5083928;28;20881;-77
2022/01/03 05:33:15;;;;;;;2.43;0.90;;;7.80;92.20;;;6.44;91.63;97901.78;5088426;28;20469;-76
2022/01/03 05:35:42;;;;;;;2.87;1.00;;;7.80;92.30;;;6.38;92.39;97902.53;5086327;28;20939;-77
2022/01/03 05:38:10;;;;;;;2.70;1.00;;;7.80;92.90;;;6.04;93.31;97874.56;5085996;28;20569;-78
2022/01/03 05:40:37;;;;;;;4.80;1.03;;;7.70;93.60;;;6.21;93.27;97901.94;5094184;28;20455;-77
2022/01/03 05:43:04;;;;;;;2.70;0.90;;;7.70;94.10;;;6.36;93.06;97916.16;5098153;28;20448;-77
2022/01/03 05:45:31;;;;;;;1.97;0.80;;;7.70;94.30;;;6.36;93.83;97920.69;5077456;28;20448;-76
2022/01/03 05:47:59;;;;;;;2.40;1.20;;;7.70;94.60;;;6.33;93.59;97926.44;5089878;28;20455;-76
2022/01/03 05:50:27;;;;;;;2.97;1.30;;;7.70;94.70;;;6.33;94.20;97934.50;5065424;28;20480;-77
2022/01/03 05:52:54;;;;;;;2.73;1.20;;;7.70;95.20;;;6.25;94.23;97922.03;5077641;28;20520;-79
2022/01/03 05:55:24;;;;;;;2.00;1.07;;;7.70;95.20;;;6.31;94.12;97928.50;5087258;28;20541;-78
2022/01/03 05:57:51;;;;;;;2.30;0.90;;;7.60;95.30;;;6.33;94.59;97942.56;5102593;28;20448;-80
2022/01/03 06:00:20;;;;;;;3.13;1.00;;;7.60;95.80;;;6.20;94.58;97919.91;5085073;28;20941;-80
2022/01/03 06:02:47;;;;;;;3.13;1.00;;;7.60;95.80;;;6.29;94.76;97942.09;5084644;28;20499;-81
2022/01/03 06:05:32;;;;;;;3.47;1.73;;;7.70;96.40;;;6.12;94.08;97898.56;5083722;28;20872;-78
2022/01/03 06:07:59;;;;;;;2.50;1.13;;;7.70;95.40;;;6.34;94.68;97949.56;5063590;28;20507;-78
2022/01/03 06:10:26;;;;;;;2.43;1.07;;;7.70;95.50;;;6.30;95.09;97951.00;5068175;28;20513;-76
2022/01/03 06:12:53;;;;;;;3.13;1.00;;;7.70;96.60;;;6.27;95.06;97943.28;5072307;28;20504;-77
2022/01/03 06:15:23;;;;;;;1.97;1.23;;;7.60;96.50;;;6.14;95.47;97934.09;5083753;28;20484;-76
2022/01/03 06:17:50;;;;;;;6.40;2.13;;;7.60;97.20;;;6.17;94.90;97917.63;5093784;28;20490;-82
2022/01/03 06:20:19;;;;;;;3.53;1.23;;;7.70;96.50;;;6.49;94.35;97947.69;5082447;28;20457;-81
2022/01/03 06:22:46;;;;;;;2.60;1.30;;;7.70;95.70;;;6.32;93.93;97946.25;5085122;28;20468;-83
2022/01/03 06:25:13;;;;;;;2.90;1.20;;;7.70;94.80;;;5.95;93.81;97888.03;5084717;28;20461;-83
2022/01/03 06:27:40;;;;;;;3.40;2.10;;;7.70;95.40;;;6.52;93.76;97962.56;5098661;28;20526;-84
2022/01/03 06:30:11;;;;;;;4.40;2.20;;;7.70;95.10;;;6.44;93.55;97951.94;5069792;28;20555;-84
2022/01/03 06:32:38;;;;;;;4.67;1.70;;;7.70;94.90;;;5.97;94.51;97879.81;5083861;28;20481;-83
2022/01/03 06:35:06;;;;;;;1.97;1.00;;;7.70;95.90;;;6.32;93.29;97946.25;5081029;28;20572;-82
2022/01/03 06:37:34;;;;;;;4.47;1.57;;;7.70;94.30;;;6.31;94.22;97950.78;5084190;28;20474;-80
2022/01/03 06:40:02;;;;;;;2.87;1.70;;;7.70;95.30;;;6.36;93.97;97958.25;5069239;28;20825;-83
2022/01/03 06:42:29;;;;;;;2.57;1.67;;;7.70;95.30;;;6.32;93.98;97940.88;5088768;28;20542;-83
2022/01/03 06:44:56;;;;;;;3.20;1.60;;;7.70;95.00;;;6.14;94.42;97907.28;5066296;28;20487;-82
2022/01/03 06:47:23;;;;;;;3.90;2.53;;;7.70;96.70;;;6.32;95.16;97935.53;5086811;28;20460;-82
2022/01/03 06:49:50;;;;;;;3.10;1.40;;;7.60;96.50;;;6.20;96.02;97944.06;5072345;28;20492;-84
2022/01/03 06:52:18;;;;;;;2.30;0.93;;;7.60;97.20;;;6.31;96.12;97948.09;5086408;28;20476;-81
2022/01/03 06:54:46;;;;;;;3.63;1.50;;;7.60;98.50;;;6.31;95.27;97932.00;5078360;28;20496;-81
2022/01/03 06:57:13;;;;;;;4.90;1.37;;;7.60;97.10;;;6.24;96.02;97933.78;5069703;28;20445;-80
2022/01/03 06:59:40;;;;;;;3.10;1.80;;;7.60;98.00;;;6.29;96.67;97947.47;5085550;28;20496;-81
2022/01/03 07:02:07;;;;;;;4.63;1.03;;;7.60;99.70;;;6.20;96.28;97940.53;5079373;28;20461;-80
2022/01/03 07:04:35;;;;;;;2.40;1.63;;;7.60;99.10;;;6.42;96.24;97956.69;5089925;28;20461;-81
2022/01/03 07:07:02;;;;;;;4.03;1.60;;;7.60;99.90;;;6.31;96.46;97956.16;5087006;28;20999;-82
2022/01/03 07:09:29;;;;;;;3.50;1.47;;;7.60;99.30;;;6.23;96.71;97959.78;5085604;28;20551;-82
2022/01/03 07:11:57;;;;;;;2.73;1.30;;;7.50;99.60;;;6.12;97.59;97960.25;5084014;28;20487;-79
2022/01/03 07:20:02;;;;;;;3.43;1.70;;;7.50;99.90;;;6.15;96.05;97941.13;5083618;28;20516;-74
2022/01/03 07:22:30;;;;;;;4.43;1.80;;;7.60;97.80;;;6.21;96.80;97958.28;5068186;28;20584;-77
2022/01/03 07:24:58;;;;;;;10.87;2.17;;;7.50;98.70;;;6.18;95.87;97948.78;5086221;28;20528;-76
2022/01/03 07:27:26;;;;;;;4.80;1.27;;;7.50;98.00;;;6.19;94.33;97942.41;5080871;28;20480;-76
2022/01/03 07:29:53;;;;;;;3.50;1.27;;;7.60;95.30;;;6.37;92.23;97959.94;5077987;28;21214;-75
2022/01/03 07:32:20;;;;;;;3.00;1.00;;;7.60;92.60;;;6.36;91.03;97963.63;5085872;28;20470;-76
2022/01/03 07:34:47;;;;;;;3.27;1.17;;;7.70;91.50;;;6.49;92.08;97969.16;5055808;28;20453;-74
2022/01/03 07:37:14;;;;;;;2.47;1.10;;;7.80;92.70;;;6.54;90.10;97971.28;5069404;28;20456;-76
2022/01/03 07:39:42;;;;;;;2.00;0.80;;;7.80;91.00;;;6.53;90.16;97974.97;5069973;28;20453;-74
2022/01/03 07:42:09;;;;;;;1.63;0.83;;;7.80;91.30;;;6.56;91.55;97979.97;5084520;28;20467;-76
2022/01/03 07:44:37;;;;;;;0.83;0.80;;;7.90;92.20;;;6.57;90.70;97978.94;5090130;28;20460;-76
2022/01/03 07:47:06;;;;;;;1.93;1.00;;;7.90;91.40;;;6.55;91.69;97983.66;5083416;28;21053;-75
2022/01/03 07:49:33;;;;;;;2.77;1.10;;;7.90;92.30;;;6.46;91.82;97979.44;5082331;28;20464;-75
2022/01/03 07:52:00;;;;;;;2.10;1.10;;;7.90;92.30;;;6.47;92.44;97992.66;5081576;28;20584;-74
2022/01/03 07:54:27;;;;;;;3.10;1.07;;;7.80;92.90;;;6.45;93.16;97973.25;5085313;28;20467;-75
2022/01/03 07:56:54;;;;;;;2.80;0.80;;;7.80;94.10;;;6.47;93.08;97981.09;5083335;28;20459;-75
2022/01/03 07:59:21;;;;;;;1.60;0.80;;;7.80;94.00;;;6.33;93.90;97978.25;5084925;28;20457;-77
2022/01/03 08:01:49;;;;;;;2.60;1.10;;;7.70;94.20;;;6.36;94.25;97966.31;5086676;28;20459;-72
2022/01/03 08:04:16;;;;;;;1.70;0.50;;;7.70;95.10;;;6.37;94.58;97970.66;5085501;28;20543;-76
2022/01/03 08:06:43;;;;;;;2.10;1.10;;;7.70;96.10;;;6.39;95.42;97965.94;5082890;28;21118;-76
2022/01/03 08:09:10;;;;;;;0.80;0.50;;;7.70;97.80;;;6.41;94.04;97971.94;5086160;28;20545;-78
2022/01/03 08:11:38;;;;;;;1.73;1.30;;;7.70;95.40;;;6.42;94.36;97962.06;5077648;28;21650;-74
2022/01/03 08:14:05;;;;;;;2.23;1.67;;;7.70;95.40;;;6.42;94.60;97960.19;5082429;28;20451;-75
2022/01/03 08:16:32;;;;;;;1.23;1.10;;;7.70;96.20;;;6.60;94.58;97967.81;5080588;28;20558;-74
2022/01/03 08:19:00;;;;;;;0.83;0.60;;;7.80;96.30;;;6.65;93.99;97972.63;5068354;28;20502;-74
2022/01/03 08:21:27;;;;;;;1.93;1.20;;;7.90;95.30;;;6.68;93.31;97972.22;5091228;28;20548;-73
2022/01/03 08:23:54;;;;;;;1.30;0.90;;;7.90;95.60;;;6.85;92.90;97972.81;5083404;28;20495;-75
2022/01/03 08:26:21;;;;;;;2.57;1.00;;;8.00;94.10;;;6.84;92.89;97987.25;5092188;28;20487;-73
2022/01/03 08:28:48;;;;;;;1.10;0.80;;;8.10;94.00;;;7.07;92.38;97987.06;5067440;28;20477;-75
2022/01/03 08:31:15;;;;;;;1.63;1.20;;;8.20;94.10;;;6.95;92.49;97991.28;5085663;28;20493;-78
2022/01/03 08:33:43;;;;;;;3.80;2.17;;;8.30;93.40;;;7.02;92.28;97988.66;5077111;28;20933;-78
2022/01/03 08:36:12;;;;;;;1.50;0.80;;;8.20;93.70;;;7.13;91.69;97989.97;5084835;28;20549;-79
2022/01/03 08:38:39;;;;;;;1.70;1.53;;;8.30;93.30;;;6.91;92.18;97971.22;5079661;28;20455;-85
2022/01/03 08:41:06;;;;;;;21.53;9.83;;;8.20;93.20;;;7.01;92.04;97966.31;5085072;28;20463;-79
2022/01/03 08:43:33;;;;;;;3.07;1.17;;;8.30;93.70;;;7.29;91.91;97995.06;5081668;28;20468;-79
2022/01/03 08:46:00;;;;;;;3.97;2.03;;;8.50;93.90;;;7.43;90.87;97993.34;5066146;28;20457;-78
2022/01/03 08:48:28;;;;;;;2.47;1.20;;;8.60;93.00;;;7.56;89.15;97989.06;5073171;28;20444;-80
2022/01/03 08:50:56;;;;;;;2.20;1.27;;;8.70;91.30;;;7.05;89.34;97916.56;5102931;28;20461;-80
2022/01/03 08:53:26;;;;;;;2.27;1.30;;;8.70;91.30;;;7.57;89.50;97991.56;5098525;28;20569;-83
2022/01/03 08:55:55;;;;;;;2.83;2.03;;;8.70;91.70;;;7.27;90.13;97959.50;5092810;28;20580;-77
2022/01/03 08:58:22;;;;;;;4.13;1.50;;;8.70;91.80;;;7.53;90.19;97984.91;5069733;28;20511;-78
2022/01/03 09:00:50;;;;;;;3.17;1.33;;;8.70;91.80;;;7.57;89.61;97980.81;5100706;28;20871;-79
2022/01/03 09:03:17;;;;;;;2.83;1.73;;;8.80;91.10;;;7.50;89.63;97985.28;5085773;28;20446;-79
2022/01/03 09:05:45;;;;;;;2.13;1.70;;;8.80;91.40;;;7.63;89.33;97985.38;5089314;28;20474;-78
2022/01/03 09:08:12;;;;;;;4.70;1.70;;;8.80;90.80;;;7.76;88.76;97978.41;5081836;28;20471;-79
2022/01/03 09:10:41;;;;;;;2.23;1.87;;;9.00;90.80;;;7.75;88.35;97979.44;5070739;28;20448;-80
2022/01/03 09:13:08;;;;;;;6.23;2.07;;;9.00;90.50;;;7.96;88.33;97983.91;5086302;28;20487;-79
2022/01/03 09:15:37;;;;;;;1.90;1.30;;;9.10;90.70;;;8.02;88.45;97988.47;5100358;28;20977;-80
2022/01/03 09:18:05;;;;;;;2.03;1.60;;;9.20;90.70;;;8.06;88.44;97984.38;5080592;28;20503;-81
2022/01/03 09:20:32;;;;;;;2.03;1.70;;;9.30;90.40;;;8.14;87.80;97991.47;5098950;28;21020;-79
2022/01/03 09:23:07;;;;;;;5.53;2.57;;;9.30;90.30;;;8.19;87.41;98007.81;5069432;28;20490;-79
2022/01/03 09:31:05;;;;;;;2.30;1.80;;;9.50;89.10;;;8.18;85.90;97992.72;5070907;28;20447;-79
2022/01/03 09:33:32;;;;;;;5.37;1.80;;;9.50;88.40;;;8.33;85.87;97979.09;5082810;28;21081;-77
2022/01/03 09:35:59;;;;;;;4.30;1.90;;;9.50;88.10;;;8.38;86.14;97975.78;5083755;28;20456;-79
2022/01/03 09:38:26;;;;;;;3.07;2.13;;;9.60;88.10;;;8.38;86.62;97975.78;5097231;28;20462;-80
2022/01/03 09:40:55;;;;;;;3.67;2.10;;;9.60;88.40;;;8.36;86.27;97961.72;5093440;28;20490;-80
2022/01/03 09:43:24;;;;;;;4.60;2.23;;;9.60;87.90;;;8.44;86.36;97979.53;5085361;28;20305;-80
2022/01/03 09:45:53;;;;;;;4.37;1.93;;;9.60;88.20;;;8.06;86.93;97935.09;5082807;28;20839;-79
2022/01/03 09:48:23;;;;;;;6.47;2.10;;;9.60;88.50;;;8.12;87.21;97960.38;5080286;28;20452;-78
2022/01/03 09:50:51;;;;;;;5.00;2.83;;;9.40;88.90;;;8.29;87.61;97982.41;5064092;28;20622;-79
2022/01/03 09:53:20;;;;;;;5.90;3.20;;;9.40;89.60;;;8.37;85.77;97963.38;5064745;28;21039;-81
2022/01/03 09:55:50;;;;;;;9.53;3.80;;;9.50;88.60;;;8.34;86.60;97977.22;5085480;28;20542;-79
2022/01/03 09:58:17;;;;;;;7.13;2.67;;;9.60;88.60;;;8.31;86.87;97983.84;5084859;28;20497;-79
2022/01/03 10:00:46;;;;;;;6.77;2.40;;;9.50;89.10;;;8.41;86.92;97967.31;5083134;28;20509;-81
2022/01/03 10:03:14;;;;;;;7.50;2.93;;;9.60;88.70;;;8.11;87.55;97945.28;5072353;28;21073;-80
2022/01/03 10:05:41;;;;;;;4.97;2.50;;;9.50;89.20;;;8.57;86.51;97970.69;5088458;28;20457;-78
2022/01/03 10:08:08;;;;;;;8.97;2.90;;;9.70;88.80;;;8.46;86.36;97964.84;5068633;28;20584;-79
2022/01/03 10:10:35;;;;;;;6.83;2.07;;;9.70;88.00;;;8.41;86.97;97958.41;5083451;28;20464;-78
2022/01/03 10:13:02;;;;;;;6.90;2.87;;;9.70;88.60;;;8.57;86.72;97958.06;5082945;28;20474;-81
2022/01/03 10:15:30;;;;;;;7.57;2.50;;;9.70;88.40;;;8.63;84.81;97961.81;5087192;28;20985;-77
2022/01/03 10:17:58;;;;;;;9.73;3.43;;;9.80;87.20;;;8.52;85.32;97943.56;5066084;28;20476;-77
2022/01/03 10:20:30;;;;;;;9.30;2.70;;;9.80;86.90;;;8.64;85.77;97948.16;5080316;28;20457;-81
2022/01/03 10:23:09;;;;;;;9.93;2.80;;;9.80;87.50;;;8.70;84.68;97943.78;5083847;28;20460;-79
2022/01/03 10:25:36;;;;;;;7.53;2.70;;;9.90;87.00;;;8.68;84.23;97932.38;5082767;28;20455;-78
2022/01/03 10:28:05;;;;;;;10.73;2.70;;;9.90;86.60;;;8.69;85.39;97944.00;5081945;28;20494;-82
2022/01/03 10:30:36;;;;;;;9.30;3.43;;;9.90;87.00;;;8.77;84.69;97941.94;5080837;28;20970;-79
2022/01/03 10:33:06;;;;;;;7.77;2.93;;;10.00;85.90;;;8.75;84.13;97941.31;5079076;28;21068;-74
2022/01/03 10:35:39;;;;;;;4.67;2.07;;;10.00;85.00;;;8.75;83.08;97916.25;5084151;28;20913;-78
2022/01/03 10:38:06;;;;;;;4.40;1.87;;;10.10;84.40;;;8.72;84.37;97932.81;5080626;28;20453;-78
2022/01/03 10:40:33;;;;;;;6.07;2.67;;;10.00;84.70;;;8.79;83.73;97929.09;5071786;28;20448;-79
2022/01/03 10:43:16;;;;;;;9.87;2.70;;;10.10;84.90;;;8.89;83.67;97944.84;5087918;28;20468;-77
2022/01/03 10:45:44;;;;;;;9.60;2.80;;;10.10;84.80;;;8.71;84.14;97925.78;5096432;28;20555;-76
2022/01/03 10:48:33;;;;;;;7.30;3.10;;;10.00;84.90;;;8.87;85.48;97935.31;5088885;28;20514;-77
2022/01/03 10:51:03;;;;;;;5.80;2.40;;;10.00;85.50;;;8.38;83.64;97833.09;5102128;28;20560;-78